Time;durP1;ratioP1;P1;durP2;ratioP2;P2;SDS_P1;SDS_P2;PMS_P1;PMS_P2;Temp;Humidity;BMP_temperature;BMP_pressure;BME280_temperature;BME280_humidity;BME280_pressure;Samples;Min_cycle;Max_cycle;Signal;HPM_P1;HPM_P2
2022/06/16 00:02:14;;;;;;;5.80;4.87;;;19.50;64.20;;;;;;4982574;28;20507;-83
2022/06/16 00:04:45;;;;;;;5.40;5.00;;;19.50;65.10;;;;;;4983025;28;20482;-82
2022/06/16 00:07:13;;;;;;;5.63;5.13;;;19.50;66.50;;;;;;4963203;29;20452;-81
2022/06/16 00:09:40;;;;;;;5.73;4.33;;;19.60;65.70;;;;;;4962266;28;20480;-82
2022/06/16 00:12:07;;;;;;;5.40;5.00;;;19.50;66.50;;;;;;5000520;28;20507;-82
2022/06/16 00:14:34;;;;;;;6.83;6.37;;;19.50;66.80;;;;;;5000111;28;21023;-83
2022/06/16 00:17:02;;;;;;;5.53;5.13;;;19.50;66.80;;;;;;4981932;28;20965;-82
2022/06/16 00:19:29;;;;;;;4.90;4.50;;;19.50;66.20;;;;;;4980951;28;20453;-82
2022/06/16 00:21:55;;;;;;;4.50;4.17;;;19.50;66.30;;;;;;4997936;28;20482;-83
2022/06/16 00:24:27;;;;;;;5.30;4.73;;;19.40;66.30;;;;;;4999740;28;20456;-83
2022/06/16 00:26:55;;;;;;;5.27;4.97;;;19.40;66.50;;;;;;4983332;28;20490;-83
2022/06/16 00:29:22;;;;;;;4.77;4.30;;;19.40;66.60;;;;;;4980992;28;20484;-83
2022/06/16 00:31:49;;;;;;;4.53;4.13;;;19.40;67.20;;;;;;4999453;28;20485;-82
2022/06/16 00:34:17;;;;;;;4.70;4.40;;;19.30;67.40;;;;;;5005002;28;20451;-82
2022/06/16 00:36:44;;;;;;;5.93;5.40;;;19.30;67.80;;;;;;4990953;28;20455;-82
2022/06/16 00:39:10;;;;;;;5.20;4.80;;;19.30;67.90;;;;;;4986268;28;20452;-83
2022/06/16 00:41:37;;;;;;;5.80;5.30;;;19.30;68.60;;;;;;4986306;28;20481;-83
2022/06/16 00:44:16;;;;;;;4.83;4.43;;;19.30;68.60;;;;;;4983445;28;20447;-82
2022/06/16 00:46:43;;;;;;;6.03;5.60;;;19.20;66.80;;;;;;4996378;28;20799;-83
2022/06/16 00:49:12;;;;;;;5.43;4.93;;;19.20;66.70;;;;;;5005421;28;20458;-82
2022/06/16 00:51:43;;;;;;;5.40;5.00;;;19.20;67.80;;;;;;4994133;28;20483;-83
2022/06/16 00:54:16;;;;;;;5.03;4.47;;;19.20;67.90;;;;;;4985673;28;20490;-82
2022/06/16 00:56:43;;;;;;;4.77;4.43;;;19.10;65.00;;;;;;4998207;28;20442;-82
2022/06/16 00:59:11;;;;;;;4.53;4.20;;;19.10;64.90;;;;;;5006557;28;20812;-81
2022/06/16 01:01:41;;;;;;;5.03;4.63;;;19.00;65.60;;;;;;4991470;28;20476;-82
2022/06/16 01:06:55;;;;;;;4.63;4.13;;;19.10;67.20;;;;;;4993405;28;20442;-83
2022/06/16 01:09:24;;;;;;;4.60;4.23;;;19.10;68.50;;;;;;5000957;28;20978;-83
2022/06/16 01:15:04;;;;;;;5.40;4.80;;;19.10;69.20;;;;;;4980601;28;20482;-81
2022/06/16 01:17:40;;;;;;;4.73;4.40;;;19.10;70.20;;;;;;4982519;28;20447;-83
2022/06/16 01:20:21;;;;;;;5.30;4.90;;;19.00;71.70;;;;;;4980804;28;20826;-82
2022/06/16 01:23:29;;;;;;;6.30;5.70;;;18.90;72.60;;;;;;4998135;28;21023;-83
2022/06/16 01:26:10;;;;;;;5.53;5.10;;;18.90;73.30;;;;;;4997227;28;20458;-83
2022/06/16 01:28:58;;;;;;;5.60;5.20;;;18.90;73.60;;;;;;4979717;28;20455;-82
2022/06/16 01:31:30;;;;;;;5.73;5.00;;;18.80;73.60;;;;;;4985296;28;20467;-83
2022/06/16 01:34:08;;;;;;;5.40;5.10;;;18.70;73.20;;;;;;4999254;28;20451;-83
2022/06/16 01:36:39;;;;;;;5.50;5.00;;;18.70;73.40;;;;;;4993176;28;20486;-82
2022/06/16 01:39:13;;;;;;;5.37;4.87;;;18.70;73.80;;;;;;4980354;28;20460;-83
2022/06/16 01:41:46;;;;;;;5.37;4.97;;;18.70;73.90;;;;;;4980212;28;20472;-82
2022/06/16 01:44:19;;;;;;;5.50;5.10;;;18.60;74.10;;;;;;4979395;28;20451;-82
2022/06/16 01:46:48;;;;;;;5.97;5.47;;;18.60;74.30;;;;;;4986171;28;20451;-82
2022/06/16 01:49:19;;;;;;;6.30;5.77;;;18.50;74.80;;;;;;4999545;28;20469;-82
2022/06/16 01:51:52;;;;;;;5.23;4.87;;;18.50;75.40;;;;;;4996670;28;20481;-83
2022/06/16 01:54:21;;;;;;;7.30;5.60;;;18.50;75.40;;;;;;4999480;28;20451;-81
2022/06/16 01:56:54;;;;;;;6.07;5.67;;;18.50;75.30;;;;;;4992028;28;20499;-83
2022/06/16 01:59:27;;;;;;;5.40;4.90;;;18.40;75.50;;;;;;4980076;28;20459;-81
2022/06/16 02:02:01;;;;;;;6.87;6.23;;;18.40;75.50;;;;;;4984902;28;20484;-83
2022/06/16 02:04:33;;;;;;;4.60;4.30;;;18.40;75.00;;;;;;4998815;28;20679;-81
2022/06/16 02:07:04;;;;;;;5.00;4.60;;;18.40;75.00;;;;;;4991643;28;20456;-83
2022/06/16 02:09:38;;;;;;;5.60;5.10;;;18.30;74.70;;;;;;4978008;28;20463;-81
2022/06/16 02:12:08;;;;;;;6.20;5.60;;;18.30;74.80;;;;;;4985302;28;20494;-83
2022/06/16 02:14:42;;;;;;;5.20;4.90;;;18.30;74.80;;;;;;4998829;28;20819;-82
2022/06/16 02:17:10;;;;;;;5.37;4.93;;;18.30;75.20;;;;;;4992081;28;20459;-83
2022/06/16 02:19:37;;;;;;;5.83;4.90;;;18.30;75.60;;;;;;4979212;28;20451;-83
2022/06/16 02:22:05;;;;;;;5.00;4.60;;;18.30;75.50;;;;;;4978955;28;20475;-82
2022/06/16 02:24:31;;;;;;;5.40;5.00;;;18.20;75.70;;;;;;4979229;28;20467;-83
2022/06/16 02:27:00;;;;;;;4.67;4.37;;;18.20;76.60;;;;;;4980064;28;20455;-82
2022/06/16 02:29:30;;;;;;;4.40;4.20;;;18.20;76.90;;;;;;4979006;28;20484;-82
2022/06/16 02:32:15;;;;;;;5.23;4.90;;;18.10;77.00;;;;;;4981243;28;20493;-83
2022/06/16 02:34:54;;;;;;;5.20;4.80;;;18.00;77.40;;;;;;4998114;28;20461;-81
2022/06/16 02:37:33;;;;;;;5.50;5.00;;;18.10;78.20;;;;;;4992167;28;20463;-82
2022/06/16 02:40:17;;;;;;;6.00;5.60;;;18.00;78.30;;;;;;4978747;28;20450;-82
2022/06/16 02:42:55;;;;;;;5.23;4.73;;;18.00;78.60;;;;;;4986500;28;21033;-81
2022/06/16 02:45:27;;;;;;;4.97;4.47;;;18.00;78.90;;;;;;4997981;28;20449;-83
2022/06/16 02:48:08;;;;;;;4.40;4.20;;;17.90;79.20;;;;;;4988656;28;20456;-81
2022/06/16 02:50:43;;;;;;;6.67;5.80;;;17.90;79.40;;;;;;4978298;28;20447;-82
2022/06/16 02:53:23;;;;;;;4.83;4.53;;;17.90;80.00;;;;;;4989121;28;20457;-82
2022/06/16 02:55:57;;;;;;;5.40;5.03;;;17.90;80.50;;;;;;4997956;28;20490;-82
2022/06/16 02:58:24;;;;;;;5.37;5.00;;;17.90;80.80;;;;;;4985894;28;20486;-83
2022/06/16 03:00:54;;;;;;;5.20;4.90;;;17.80;80.90;;;;;;4978191;28;20836;-83
2022/06/16 03:03:25;;;;;;;4.93;4.60;;;17.80;81.10;;;;;;4979404;28;20459;-82
2022/06/16 03:05:52;;;;;;;5.80;5.40;;;17.80;81.30;;;;;;4977627;28;20452;-82
2022/06/16 03:08:20;;;;;;;6.00;5.40;;;17.80;82.10;;;;;;4988092;28;20461;-83
2022/06/16 03:10:53;;;;;;;5.70;5.20;;;17.80;83.60;;;;;;4997838;28;20461;-82
2022/06/16 03:13:22;;;;;;;5.70;5.30;;;17.70;84.00;;;;;;5046246;22;20855;-78
2022/06/16 03:15:50;;;;;;;5.87;5.37;;;17.70;84.30;;;;;;5026621;28;20503;-78
2022/06/16 03:18:17;;;;;;;6.93;5.73;;;17.70;85.00;;;;;;5025186;28;20453;-79
2022/06/16 03:20:45;;;;;;;5.77;5.27;;;17.70;86.20;;;;;;5026308;28;20460;-78
2022/06/16 03:23:12;;;;;;;5.80;5.20;;;17.70;87.50;;;;;;5023345;28;20469;-79
2022/06/16 03:25:40;;;;;;;6.27;5.67;;;17.70;88.30;;;;;;5011917;28;20453;-79
2022/06/16 03:28:08;;;;;;;5.97;5.37;;;17.70;88.20;;;;;;5011552;28;20455;-78
2022/06/16 03:30:36;;;;;;;5.87;5.37;;;17.60;88.50;;;;;;5010249;28;20453;-79
2022/06/16 03:33:03;;;;;;;8.07;5.87;;;17.60;89.40;;;;;;5016673;28;20465;-78
2022/06/16 03:35:30;;;;;;;6.00;5.50;;;17.60;89.80;;;;;;5031736;28;20492;-79
2022/06/16 03:37:59;;;;;;;5.43;5.03;;;17.50;90.10;;;;;;5027787;28;20457;-78
2022/06/16 03:40:26;;;;;;;6.57;5.83;;;17.60;90.70;;;;;;5029403;28;20455;-78
2022/06/16 03:42:53;;;;;;;6.20;5.80;;;17.60;91.00;;;;;;5025420;28;20484;-78
2022/06/16 03:45:19;;;;;;;5.60;5.10;;;17.60;90.80;;;;;;5010154;28;20469;-78
2022/06/16 03:47:46;;;;;;;5.33;5.00;;;17.70;90.90;;;;;;5008340;28;20457;-80
2022/06/16 03:50:16;;;;;;;7.83;6.07;;;17.70;90.60;;;;;;5019009;28;20428;-80
2022/06/16 03:52:43;;;;;;;5.80;5.30;;;17.70;90.50;;;;;;5018242;28;20462;-80
2022/06/16 03:55:11;;;;;;;5.57;5.07;;;17.80;89.80;;;;;;4979002;28;20459;-80
2022/06/16 03:57:39;;;;;;;6.07;5.43;;;17.90;87.70;;;;;;5009911;28;20951;-80
2022/06/16 04:00:07;;;;;;;5.40;4.67;;;18.00;85.70;;;;;;5017824;28;20446;-80
2022/06/16 04:02:34;;;;;;;5.43;5.07;;;18.10;84.30;;;;;;5003047;28;20847;-80
2022/06/16 04:05:00;;;;;;;5.17;4.73;;;18.30;87.30;;;;;;4998238;28;20988;-80
2022/06/16 04:07:27;;;;;;;5.97;5.57;;;18.30;87.80;;;;;;5000882;28;21011;-80
2022/06/16 04:09:54;;;;;;;5.80;5.33;;;18.40;86.50;;;;;;5007917;28;20439;-78
2022/06/16 04:12:22;;;;;;;5.57;5.17;;;18.50;86.30;;;;;;5012226;28;20488;-80
2022/06/16 04:14:49;;;;;;;6.10;5.70;;;18.60;86.90;;;;;;5017581;28;20452;-80
2022/06/16 04:17:16;;;;;;;5.93;5.53;;;18.70;86.80;;;;;;5007660;28;20446;-80
2022/06/16 04:20:11;;;;;;;5.07;4.77;;;18.80;86.80;;;;;;4997658;28;20454;-79
2022/06/16 04:22:29;;;;;;;6.97;6.37;;;18.90;87.00;;;;;;4997465;28;20506;-81
2022/06/16 04:24:56;;;;;;;5.80;5.20;;;19.00;86.40;;;;;;4998102;28;20462;-80
2022/06/16 04:27:24;;;;;;;6.13;5.60;;;19.10;85.40;;;;;;4998003;28;20495;-80
2022/06/16 04:29:51;;;;;;;5.93;5.40;;;19.20;84.00;;;;;;5009323;28;20476;-80
2022/06/16 04:32:18;;;;;;;5.43;4.80;;;19.30;82.30;;;;;;5016266;28;20549;-80
2022/06/16 04:34:45;;;;;;;4.93;4.53;;;19.40;82.40;;;;;;5006827;28;20615;-80
2022/06/16 04:37:13;;;;;;;5.17;4.83;;;19.40;79.90;;;;;;4997182;28;20968;-80
2022/06/16 04:39:39;;;;;;;5.33;4.83;;;19.50;77.50;;;;;;4998617;28;20458;-80
2022/06/16 04:42:07;;;;;;;4.57;4.27;;;19.50;77.10;;;;;;4997067;28;21022;-80
2022/06/16 04:44:35;;;;;;;4.50;4.20;;;19.60;74.10;;;;;;5012353;28;20459;-80
2022/06/16 04:47:02;;;;;;;5.10;4.80;;;19.70;74.60;;;;;;5016493;28;20581;-80
2022/06/16 04:49:30;;;;;;;4.97;4.53;;;19.80;74.40;;;;;;5002689;28;20528;-80
2022/06/16 04:51:57;;;;;;;4.00;3.80;;;19.90;75.40;;;;;;4997231;28;20477;-80
2022/06/16 04:54:23;;;;;;;4.97;4.67;;;20.00;74.30;;;;;;4997634;28;20460;-81
2022/06/16 04:56:51;;;;;;;5.73;5.20;;;20.10;74.40;;;;;;4998701;28;20448;-80
2022/06/16 04:59:18;;;;;;;6.50;5.37;;;20.00;74.60;;;;;;5000679;28;20453;-80
2022/06/16 05:01:46;;;;;;;4.50;4.10;;;19.90;74.80;;;;;;5004236;28;20475;-80
2022/06/16 05:04:12;;;;;;;4.53;4.23;;;19.80;73.90;;;;;;5016659;28;20480;-80
2022/06/16 05:06:39;;;;;;;5.13;4.73;;;19.80;74.30;;;;;;5010189;28;20475;-80
2022/06/16 05:09:06;;;;;;;4.87;4.47;;;19.80;74.10;;;;;;4996952;28;20463;-80
2022/06/16 05:11:32;;;;;;;4.97;4.47;;;19.80;75.50;;;;;;5010856;28;20489;-80
2022/06/16 05:14:00;;;;;;;5.70;5.20;;;19.90;75.20;;;;;;5016656;28;20472;-80
2022/06/16 05:16:27;;;;;;;5.23;4.67;;;19.90;76.10;;;;;;5014644;28;20475;-81
2022/06/16 05:18:56;;;;;;;5.37;4.57;;;20.00;76.60;;;;;;5016162;28;20504;-80
2022/06/16 05:21:23;;;;;;;4.63;4.30;;;20.10;76.20;;;;;;5002815;28;20454;-81
2022/06/16 05:23:50;;;;;;;5.07;4.77;;;20.20;76.70;;;;;;5006350;28;20460;-80
2022/06/16 05:26:17;;;;;;;3.93;3.63;;;20.40;77.10;;;;;;4996660;28;20482;-80
2022/06/16 05:28:43;;;;;;;5.10;4.70;;;20.60;76.70;;;;;;5007945;28;20458;-80
2022/06/16 05:31:10;;;;;;;3.93;3.73;;;20.70;76.30;;;;;;5012951;28;20469;-83
2022/06/16 05:33:37;;;;;;;4.60;4.23;;;20.90;73.90;;;;;;5012701;28;20472;-82
2022/06/16 05:36:08;;;;;;;5.13;4.73;;;21.00;70.50;;;;;;4998836;28;20464;-82
2022/06/16 05:38:35;;;;;;;4.30;4.00;;;21.20;72.40;;;;;;5007661;28;20475;-82
2022/06/16 05:41:06;;;;;;;4.80;4.50;;;21.30;72.90;;;;;;5017722;28;20457;-82
2022/06/16 05:43:34;;;;;;;6.30;5.10;;;21.60;75.50;;;;;;4998058;28;20484;-82
2022/06/16 05:46:01;;;;;;;5.20;4.80;;;21.70;74.90;;;;;;5000022;28;20453;-82
2022/06/16 05:48:28;;;;;;;4.40;4.20;;;21.90;73.20;;;;;;5023289;28;20801;-82
2022/06/16 05:50:55;;;;;;;4.80;4.43;;;22.00;72.00;;;;;;4999508;28;20457;-82
2022/06/16 05:53:23;;;;;;;4.33;3.90;;;22.10;70.00;;;;;;4999213;28;20471;-82
2022/06/16 05:55:50;;;;;;;4.97;4.50;;;22.20;69.50;;;;;;5017028;28;20453;-82
2022/06/16 05:58:17;;;;;;;4.70;4.40;;;22.40;70.50;;;;;;5000940;28;20451;-82
2022/06/16 06:00:44;;;;;;;4.40;4.10;;;22.50;72.00;;;;;;4996701;28;20462;-82
2022/06/16 06:03:11;;;;;;;5.20;4.13;;;22.40;70.40;;;;;;5012848;28;20470;-82
2022/06/16 06:05:38;;;;;;;5.00;4.60;;;22.40;70.00;;;;;;5017245;28;20456;-83
2022/06/16 06:16:29;;;;;;;4.40;4.00;;;22.60;69.70;;;;;;5017213;28;20514;-83
2022/06/16 06:18:56;;;;;;;4.83;4.40;;;22.60;71.00;;;;;;4977121;28;20494;-82
2022/06/16 06:24:04;;;;;;;4.77;4.47;;;22.30;71.20;;;;;;4996863;28;20438;-82
2022/06/16 06:26:32;;;;;;;4.77;4.37;;;22.40;70.70;;;;;;5011897;28;20485;-83
2022/06/16 06:28:59;;;;;;;7.53;4.57;;;22.60;70.50;;;;;;5015930;28;20458;-83
2022/06/16 06:31:26;;;;;;;5.20;4.70;;;22.70;69.60;;;;;;5001263;28;20455;-82
2022/06/16 06:33:53;;;;;;;4.40;4.00;;;22.80;67.90;;;;;;4996104;28;20464;-82
2022/06/16 06:36:20;;;;;;;4.83;4.40;;;22.80;71.40;;;;;;5010339;28;20450;-82
2022/06/16 06:38:46;;;;;;;4.03;3.83;;;22.70;68.80;;;;;;5017400;28;20540;-82
2022/06/16 06:41:13;;;;;;;4.40;4.10;;;22.80;71.40;;;;;;5004432;28;20455;-82
2022/06/16 06:43:43;;;;;;;5.03;4.63;;;22.90;70.90;;;;;;5006617;28;20542;-82
2022/06/16 06:46:11;;;;;;;4.63;4.27;;;23.00;68.10;;;;;;5007903;28;20503;-83
2022/06/16 06:48:37;;;;;;;5.73;5.20;;;23.10;67.80;;;;;;5000392;28;20455;-82
2022/06/16 06:51:04;;;;;;;9.10;5.20;;;23.10;67.00;;;;;;4996400;28;20455;-82
2022/06/16 06:53:31;;;;;;;4.33;4.00;;;23.10;67.60;;;;;;5010366;28;20991;-82
2022/06/16 06:55:58;;;;;;;4.60;4.30;;;23.20;68.00;;;;;;4998950;28;20452;-81
2022/06/16 06:58:25;;;;;;;6.50;4.87;;;23.30;69.20;;;;;;5009509;28;20450;-82
2022/06/16 07:00:54;;;;;;;4.70;4.40;;;23.40;68.00;;;;;;5025407;28;20450;-80
2022/06/16 07:03:21;;;;;;;6.00;4.47;;;23.60;65.40;;;;;;5036810;28;20466;-80
2022/06/16 07:05:48;;;;;;;4.33;4.03;;;23.80;65.50;;;;;;5036838;28;20431;-80
2022/06/16 07:08:15;;;;;;;4.70;4.40;;;24.10;65.80;;;;;;5037280;28;20541;-81
2022/06/16 07:10:42;;;;;;;4.30;4.00;;;24.30;67.00;;;;;;5016809;28;20451;-82
2022/06/16 07:13:09;;;;;;;4.80;4.50;;;24.50;67.40;;;;;;4997490;28;20511;-81
2022/06/16 07:15:37;;;;;;;5.37;5.07;;;24.60;68.30;;;;;;5011432;28;20456;-82
2022/06/16 07:18:07;;;;;;;4.13;3.93;;;24.80;68.70;;;;;;4997423;28;20492;-82
2022/06/16 07:20:34;;;;;;;4.90;4.60;;;24.90;67.50;;;;;;4996690;28;20459;-82
2022/06/16 07:23:01;;;;;;;4.50;4.20;;;25.00;63.90;;;;;;4996129;28;20475;-84
2022/06/16 07:25:28;;;;;;;4.80;4.50;;;25.20;64.20;;;;;;4997101;28;20810;-82
2022/06/16 07:27:56;;;;;;;5.10;4.70;;;25.20;62.70;;;;;;5006621;28;20478;-82
2022/06/16 07:30:23;;;;;;;4.80;4.50;;;25.10;63.00;;;;;;4992242;28;20499;-83
2022/06/16 07:32:51;;;;;;;5.03;4.53;;;25.20;62.70;;;;;;4989156;28;20465;-81
2022/06/16 07:35:21;;;;;;;4.77;4.43;;;25.30;63.10;;;;;;4990760;28;20536;-82
2022/06/16 07:37:49;;;;;;;4.70;4.30;;;25.40;64.50;;;;;;4990356;28;20453;-83
2022/06/16 07:40:17;;;;;;;5.33;5.03;;;25.40;64.10;;;;;;4995194;28;20891;-83
2022/06/16 07:42:45;;;;;;;5.20;4.90;;;25.40;62.60;;;;;;4987291;28;20464;-83
2022/06/16 07:45:13;;;;;;;5.77;5.23;;;25.40;62.60;;;;;;4990913;28;20457;-83
2022/06/16 07:47:39;;;;;;;5.20;4.90;;;25.30;62.20;;;;;;4986540;28;20577;-83
2022/06/16 07:50:08;;;;;;;8.70;6.40;;;25.20;62.00;;;;;;4988044;28;20830;-82
2022/06/16 07:52:37;;;;;;;5.23;4.93;;;25.20;63.00;;;;;;4984682;28;20472;-81
2022/06/16 07:55:05;;;;;;;5.60;5.10;;;25.20;65.90;;;;;;4990387;28;20466;-82
2022/06/16 07:57:34;;;;;;;6.13;5.80;;;25.10;66.00;;;;;;4985766;28;20447;-82
2022/06/16 08:00:02;;;;;;;7.40;6.70;;;25.10;65.90;;;;;;4998197;28;20461;-82
2022/06/16 08:05:49;;;;;;;6.30;5.80;;;25.20;67.30;;;;;;4998827;28;21008;-83
2022/06/16 08:08:17;;;;;;;6.03;5.57;;;25.20;68.10;;;;;;4998066;28;20502;-83
2022/06/16 08:10:56;;;;;;;6.60;6.20;;;25.00;68.50;;;;;;4999543;28;20833;-84
2022/06/16 08:13:33;;;;;;;6.87;6.00;;;24.90;68.70;;;;;;5000082;28;20520;-85
2022/06/16 08:16:00;;;;;;;5.90;5.60;;;24.80;69.10;;;;;;5019353;28;20439;-82
2022/06/16 08:18:27;;;;;;;5.20;4.80;;;24.80;70.20;;;;;;5025872;28;20962;-85
2022/06/16 08:20:54;;;;;;;6.10;5.60;;;24.80;69.60;;;;;;5000839;28;20839;-84
2022/06/16 08:23:22;;;;;;;6.63;5.90;;;24.70;70.00;;;;;;5000521;28;20477;-85
2022/06/16 08:25:50;;;;;;;5.93;5.53;;;24.80;71.10;;;;;;5004169;28;20905;-85
2022/06/16 08:28:20;;;;;;;5.97;5.50;;;24.90;72.30;;;;;;5011046;28;20539;-84
2022/06/16 08:30:51;;;;;;;5.40;4.90;;;24.90;70.20;;;;;;4999919;28;20497;-85
2022/06/16 08:33:18;;;;;;;6.80;6.13;;;24.90;71.10;;;;;;5000502;28;20472;-85
2022/06/16 08:35:46;;;;;;;5.67;5.17;;;24.80;72.80;;;;;;5018058;28;20458;-85
2022/06/16 08:38:18;;;;;;;6.03;5.53;;;25.00;72.00;;;;;;5021510;28;20999;-86
2022/06/16 08:54:50;;;;;;;6.90;6.30;;;25.20;69.80;;;;;;5075386;28;20448;-85
2022/06/16 08:57:31;;;;;;;5.70;5.40;;;25.10;70.80;;;;;;5033098;28;20449;-86
2022/06/16 09:00:06;;;;;;;6.30;5.80;;;25.20;69.90;;;;;;5094922;28;20433;-86
2022/06/16 09:03:23;;;;;;;;;;;;;;;;;;;;;
2022/06/16 09:05:57;;;;;;;5.50;5.00;;;24.90;65.10;;;;;;5069735;28;21041;-84
2022/06/16 09:11:36;;;;;;;5.23;4.77;;;24.50;64.40;;;;;;5106542;27;20472;-85
2022/06/16 09:17:28;;;;;;;5.60;5.20;;;24.60;66.30;;;;;;5138610;28;20471;-85
2022/06/16 09:20:16;;;;;;;5.97;5.53;;;24.80;66.20;;;;;;5158950;22;20481;-81
2022/06/16 09:22:59;;;;;;;5.37;4.97;;;24.90;65.80;;;;;;5058220;28;20519;-80
2022/06/16 09:28:56;;;;;;;4.30;4.00;;;25.20;64.20;;;;;;4982145;28;20932;-84
2022/06/16 09:31:34;;;;;;;5.03;4.70;;;25.30;62.60;;;;;;5069622;28;20472;-85
2022/06/16 09:34:06;;;;;;;5.50;5.00;;;25.40;62.30;;;;;;5061829;28;20487;-85
2022/06/16 09:36:38;;;;;;;5.30;5.00;;;25.40;61.90;;;;;;5075669;28;20456;-83
2022/06/16 09:39:10;;;;;;;4.90;4.60;;;25.50;62.40;;;;;;5055962;28;20987;-84
2022/06/16 09:44:30;;;;;;;5.67;5.20;;;25.80;59.90;;;;;;5060027;28;20896;-86
2022/06/16 09:47:05;;;;;;;5.43;5.10;;;25.80;60.90;;;;;;5061813;28;20455;-85
2022/06/16 09:49:38;;;;;;;5.27;4.70;;;25.90;61.50;;;;;;5053003;28;20444;-83
2022/06/16 09:52:08;;;;;;;5.33;4.93;;;26.00;61.30;;;;;;5063586;28;20473;-85
2022/06/16 09:54:40;;;;;;;4.87;4.57;;;26.10;60.10;;;;;;5055331;28;20448;-85
2022/06/16 09:57:14;;;;;;;4.83;4.53;;;26.30;60.10;;;;;;5033854;28;20454;-84
2022/06/16 09:59:45;;;;;;;4.27;3.87;;;26.40;60.40;;;;;;5038934;28;20522;-84
2022/06/16 10:02:19;;;;;;;8.03;5.07;;;26.70;60.20;;;;;;5040045;28;20485;-84
2022/06/16 10:08:51;;;;;;;5.30;4.80;;;26.70;59.00;;;;;;5056128;28;20444;-84
2022/06/16 10:11:51;;;;;;;5.17;4.77;;;26.80;60.30;;;;;;5029881;28;20465;-85
2022/06/16 10:18:25;;;;;;;6.00;5.60;;;26.80;60.00;;;;;;5062187;28;20455;-83
2022/06/16 10:20:53;;;;;;;5.30;5.00;;;26.70;60.70;;;;;;5045250;28;20552;-83
2022/06/16 10:26:49;;;;;;;6.30;5.80;;;26.80;60.20;;;;;;5049781;28;20488;-85
2022/06/16 10:33:13;;;;;;;6.20;5.80;;;27.00;60.60;;;;;;5060228;28;20438;-85
2022/06/16 10:35:48;;;;;;;5.60;5.17;;;27.00;60.10;;;;;;5060534;28;20455;-84
2022/06/16 10:38:23;;;;;;;5.80;5.40;;;27.00;62.70;;;;;;5061866;28;20515;-83
2022/06/16 10:45:00;;;;;;;5.27;4.97;;;27.10;60.20;;;;;;4944118;28;20440;-84
2022/06/16 10:47:36;;;;;;;5.40;5.10;;;27.10;61.20;;;;;;4988695;28;20477;-85
2022/06/16 10:50:44;;;;;;;5.13;4.83;;;27.30;61.70;;;;;;5031411;28;20574;-84
2022/06/16 10:53:22;;;;;;;6.07;5.77;;;27.50;61.60;;;;;;5029855;28;20442;-83
2022/06/16 10:56:26;;;;;;;5.63;4.83;;;27.80;61.50;;;;;;5044156;28;20459;-86
2022/06/16 10:59:08;;;;;;;5.23;4.93;;;28.10;60.40;;;;;;5041341;28;20481;-84
2022/06/16 11:02:16;;;;;;;6.73;6.13;;;28.20;59.90;;;;;;5042814;28;20574;-86
2022/06/16 11:04:43;;;;;;;6.67;6.07;;;28.30;59.80;;;;;;5062378;28;20514;-85
2022/06/16 11:07:13;;;;;;;6.57;6.00;;;28.50;58.70;;;;;;5040379;28;20449;-84
2022/06/16 11:09:42;;;;;;;5.73;5.33;;;28.70;58.80;;;;;;5041685;28;20442;-85
2022/06/16 11:12:17;;;;;;;6.17;5.77;;;28.70;58.20;;;;;;5058719;28;20548;-85
2022/06/16 11:14:46;;;;;;;6.00;5.60;;;28.90;57.80;;;;;;5058014;28;20458;-85
2022/06/16 11:17:20;;;;;;;6.27;5.50;;;29.00;58.80;;;;;;5061521;28;20458;-85
2022/06/16 11:19:50;;;;;;;5.10;4.80;;;29.10;58.10;;;;;;5049885;28;20455;-85
2022/06/16 11:22:27;;;;;;;5.97;5.50;;;29.40;57.50;;;;;;5040413;28;20442;-87
2022/06/16 11:25:00;;;;;;;6.10;5.50;;;29.40;57.80;;;;;;5058889;28;20508;-84
2022/06/16 11:27:28;;;;;;;5.90;4.87;;;29.50;57.90;;;;;;5051114;28;20791;-85
2022/06/16 11:29:55;;;;;;;5.33;4.97;;;29.70;57.60;;;;;;5043243;28;20455;-85
2022/06/16 11:32:27;;;;;;;5.77;5.37;;;29.60;55.20;;;;;;5042260;28;20460;-84
2022/06/16 11:34:54;;;;;;;5.97;5.53;;;29.20;55.10;;;;;;5047555;28;20480;-84
2022/06/16 11:37:47;;;;;;;5.27;4.97;;;28.90;55.90;;;;;;5034407;28;20452;-84
2022/06/16 11:40:43;;;;;;;5.50;5.10;;;28.80;56.50;;;;;;5047052;28;20468;-83
2022/06/16 11:43:38;;;;;;;5.30;4.90;;;29.00;57.80;;;;;;5060871;28;20451;-83
2022/06/16 11:46:11;;;;;;;6.30;5.93;;;29.20;57.40;;;;;;5061554;28;20448;-84
2022/06/16 11:48:48;;;;;;;6.70;6.20;;;29.40;55.80;;;;;;5061607;28;21099;-84
2022/06/16 11:51:21;;;;;;;5.60;5.10;;;29.50;56.00;;;;;;5061471;28;20471;-83
2022/06/16 11:54:02;;;;;;;6.00;5.37;;;29.20;55.00;;;;;;5060518;28;20484;-84
2022/06/16 11:56:42;;;;;;;5.90;5.40;;;29.40;54.50;;;;;;5061368;28;20462;-83
2022/06/16 11:59:32;;;;;;;6.37;5.80;;;29.40;54.50;;;;;;5061473;28;20454;-83
2022/06/16 12:02:09;;;;;;;9.10;6.10;;;29.50;54.60;;;;;;5061720;28;20472;-84
2022/06/16 12:04:55;;;;;;;5.30;4.90;;;29.60;55.10;;;;;;5062091;28;20441;-84
2022/06/16 12:07:48;;;;;;;5.50;5.10;;;29.70;54.40;;;;;;5061247;28;20449;-84
2022/06/16 12:10:25;;;;;;;5.43;5.10;;;29.70;54.80;;;;;;5061037;28;20468;-83
2022/06/16 12:13:02;;;;;;;5.53;5.03;;;30.00;54.70;;;;;;5061267;28;20492;-84
2022/06/16 12:15:38;;;;;;;5.20;4.90;;;30.70;54.50;;;;;;5062202;28;20456;-83
2022/06/16 12:18:17;;;;;;;5.40;5.10;;;30.90;53.10;;;;;;5060415;28;20455;-83
2022/06/16 12:20:56;;;;;;;5.90;5.20;;;31.40;51.80;;;;;;5060247;28;20490;-84
2022/06/16 12:23:30;;;;;;;5.23;4.83;;;31.40;51.00;;;;;;5061263;28;20450;-84
2022/06/16 12:26:01;;;;;;;5.67;5.27;;;31.40;50.80;;;;;;5059997;28;20543;-83
2022/06/16 12:28:37;;;;;;;5.17;4.90;;;31.60;50.10;;;;;;5059809;28;20455;-83
2022/06/16 12:31:08;;;;;;;5.10;4.70;;;31.60;49.30;;;;;;5059970;28;20469;-84
2022/06/16 12:33:43;;;;;;;5.03;4.70;;;31.60;49.10;;;;;;5060211;28;20489;-84
2022/06/16 12:36:13;;;;;;;5.07;4.67;;;31.70;48.20;;;;;;5060521;28;20678;-83
2022/06/16 12:38:46;;;;;;;5.10;4.60;;;31.70;47.90;;;;;;5060851;28;20458;-84
2022/06/16 12:41:17;;;;;;;5.97;5.40;;;31.90;47.60;;;;;;5060471;28;20568;-84
2022/06/16 12:43:49;;;;;;;5.60;4.27;;;32.00;46.50;;;;;;5059968;28;20514;-84
2022/06/16 12:46:20;;;;;;;5.60;5.20;;;32.10;46.00;;;;;;5060789;28;20482;-83
2022/06/16 12:48:52;;;;;;;6.70;5.60;;;32.00;45.80;;;;;;5060588;28;20450;-83
2022/06/16 12:51:22;;;;;;;4.93;4.63;;;31.50;45.50;;;;;;5060121;28;20475;-84
2022/06/16 12:53:55;;;;;;;5.47;4.97;;;31.40;47.70;;;;;;5060693;28;20496;-85
2022/06/16 12:56:30;;;;;;;5.13;4.73;;;31.70;46.20;;;;;;5065022;28;20442;-83
2022/06/16 12:59:02;;;;;;;5.00;4.70;;;31.60;46.10;;;;;;5067376;28;20449;-83
2022/06/16 13:01:29;;;;;;;5.60;5.10;;;31.40;46.30;;;;;;5066729;28;20457;-83
2022/06/16 13:04:02;;;;;;;5.50;5.00;;;31.40;46.80;;;;;;5067182;28;21124;-83
2022/06/16 13:06:30;;;;;;;5.43;5.07;;;32.00;47.00;;;;;;5065398;28;20454;-84
2022/06/16 13:09:00;;;;;;;6.23;4.50;;;32.30;45.40;;;;;;5058763;28;20466;-84
2022/06/16 13:11:28;;;;;;;4.27;4.07;;;32.40;44.60;;;;;;5059927;28;20475;-84
2022/06/16 13:14:00;;;;;;;5.00;4.70;;;31.90;44.70;;;;;;5059658;28;21006;-84
2022/06/16 13:16:36;;;;;;;4.33;4.03;;;32.20;44.90;;;;;;5064597;28;20454;-83
2022/06/16 13:19:10;;;;;;;5.13;4.83;;;32.50;44.10;;;;;;5066760;28;20459;-84
2022/06/16 13:21:40;;;;;;;4.67;4.30;;;32.60;42.30;;;;;;5066415;28;20984;-83
2022/06/16 13:24:15;;;;;;;5.40;5.00;;;32.50;43.30;;;;;;5066293;28;20759;-84
2022/06/16 13:26:54;;;;;;;4.33;4.03;;;33.10;42.10;;;;;;5065499;28;20457;-83
2022/06/16 13:29:24;;;;;;;4.70;4.30;;;32.90;41.00;;;;;;5063337;28;20987;-83
2022/06/16 13:31:58;;;;;;;5.00;4.70;;;32.90;42.70;;;;;;5061308;28;20903;-83
2022/06/16 13:34:51;;;;;;;4.70;4.37;;;33.00;41.90;;;;;;5062737;28;20492;-85
2022/06/16 13:37:38;;;;;;;4.90;4.50;;;33.00;40.70;;;;;;5062049;28;20444;-83
2022/06/16 13:40:32;;;;;;;4.57;4.20;;;33.30;40.30;;;;;;5061839;28;20476;-83
2022/06/16 13:43:06;;;;;;;4.80;4.50;;;33.10;40.50;;;;;;5025935;28;20463;-84
2022/06/16 13:45:55;;;;;;;5.30;4.80;;;32.60;41.30;;;;;;5061621;28;20451;-84
2022/06/16 13:48:45;;;;;;;5.37;4.50;;;32.60;40.40;;;;;;5061673;28;20460;-85
2022/06/16 13:51:43;;;;;;;4.93;4.50;;;33.20;40.20;;;;;;5058659;28;20472;-84
2022/06/16 13:54:12;;;;;;;4.10;3.80;;;33.80;38.70;;;;;;5057441;28;21367;-84
2022/06/16 13:56:43;;;;;;;4.10;3.80;;;34.10;37.00;;;;;;5057606;28;20448;-84
2022/06/16 13:59:23;;;;;;;4.50;4.13;;;34.10;37.30;;;;;;5057845;28;20448;-84
2022/06/16 14:02:10;;;;;;;4.57;4.30;;;34.80;37.50;;;;;;5055985;28;20467;-84
2022/06/16 14:05:00;;;;;;;4.43;4.23;;;34.40;38.10;;;;;;5056278;28;20943;-83
2022/06/16 14:07:30;;;;;;;4.43;4.23;;;34.30;38.60;;;;;;5056850;28;20456;-84
2022/06/16 14:10:05;;;;;;;4.10;3.87;;;34.30;37.60;;;;;;5056024;28;20471;-84
2022/06/16 14:13:02;;;;;;;3.80;3.60;;;34.50;37.40;;;;;;5056045;28;20454;-84
2022/06/16 14:15:46;;;;;;;4.77;4.40;;;34.40;37.30;;;;;;5056399;28;20476;-84
2022/06/16 14:18:27;;;;;;;5.23;4.87;;;34.20;36.90;;;;;;5055958;28;20449;-84
2022/06/16 14:20:59;;;;;;;4.73;4.53;;;34.10;37.70;;;;;;5055586;28;20476;-83